地図

経路データ

SID SEASON NUMBER BASIN SUBBASIN NAME ISO_TIME NATURE LAT LON WMO_WIND WMO_PRES WMO_AGENCY TRACK_TYPE DIST2LAND LANDFALL IFLAG USA_AGENCY USA_ATCF_ID USA_LAT USA_LON USA_RECORD USA_STATUS USA_WIND USA_PRES USA_SSHS USA_R34_NE USA_R34_SE USA_R34_SW USA_R34_NW USA_R50_NE USA_R50_SE USA_R50_SW USA_R50_NW USA_R64_NE USA_R64_SE USA_R64_SW USA_R64_NW USA_POCI USA_ROCI USA_RMW USA_EYE TOKYO_LAT TOKYO_LON TOKYO_GRADE TOKYO_WIND TOKYO_PRES TOKYO_R50_DIR TOKYO_R50_LONG TOKYO_R50_SHORT TOKYO_R30_DIR TOKYO_R30_LONG TOKYO_R30_SHORT TOKYO_LAND CMA_LAT CMA_LON CMA_CAT CMA_WIND CMA_PRES HKO_LAT HKO_LON HKO_CAT HKO_WIND HKO_PRES NEWDELHI_LAT NEWDELHI_LON NEWDELHI_GRADE NEWDELHI_WIND NEWDELHI_PRES NEWDELHI_CI NEWDELHI_DP NEWDELHI_POCI REUNION_LAT REUNION_LON REUNION_TYPE REUNION_WIND REUNION_PRES REUNION_TNUM REUNION_CI REUNION_RMW REUNION_R34_NE REUNION_R34_SE REUNION_R34_SW REUNION_R34_NW REUNION_R50_NE REUNION_R50_SE REUNION_R50_SW REUNION_R50_NW REUNION_R64_NE REUNION_R64_SE REUNION_R64_SW REUNION_R64_NW BOM_LAT BOM_LON BOM_TYPE BOM_WIND BOM_PRES BOM_TNUM BOM_CI BOM_RMW BOM_R34_NE BOM_R34_SE BOM_R34_SW BOM_R34_NW BOM_R50_NE BOM_R50_SE BOM_R50_SW BOM_R50_NW BOM_R64_NE BOM_R64_SE BOM_R64_SW BOM_R64_NW BOM_ROCI BOM_POCI BOM_EYE BOM_POS_METHOD BOM_PRES_METHOD NADI_LAT NADI_LON NADI_CAT NADI_WIND NADI_PRES WELLINGTON_LAT WELLINGTON_LON WELLINGTON_WIND WELLINGTON_PRES DS824_LAT DS824_LON DS824_STAGE DS824_WIND DS824_PRES TD9636_LAT TD9636_LON TD9636_STAGE TD9636_WIND TD9636_PRES TD9635_LAT TD9635_LON TD9635_WIND TD9635_PRES TD9635_ROCI NEUMANN_LAT NEUMANN_LON NEUMANN_CLASS NEUMANN_WIND NEUMANN_PRES MLC_LAT MLC_LON MLC_CLASS MLC_WIND MLC_PRES USA_GUST BOM_GUST BOM_GUST_PER REUNION_GUST REUNION_GUST_PER USA_SEAHGT USA_SEARAD_NE USA_SEARAD_SE USA_SEARAD_SW USA_SEARAD_NW STORM_SPEED STORM_DIR
1915071S13153 1915 12 SP EA NOT_NAMED 1915-03-11 23:00:00 NR -13.0000 152.900 main 360 360 __________O___ -1 -13.0000 152.900 7 4 243
1915071S13153 1915 12 SP EA NOT_NAMED 1915-03-12 00:00:00 NR -13.0307 152.846 main 352 352 __________P___ -1 -13.0307 152.846 7 4 240
1915071S13153 1915 12 SP EA NOT_NAMED 1915-03-12 03:00:00 NR -13.1237 152.684 main 354 348 __________P___ -1 -13.1237 152.684 7 4 238
1915071S13153 1915 12 SP EA NOT_NAMED 1915-03-12 06:00:00 NR -13.2208 152.530 main 350 350 __________P___ -1 -13.2208 152.530 7 4 235
1915071S13153 1915 12 SP EA NOT_NAMED 1915-03-12 09:00:00 NR -13.3250 152.387 main 354 354 __________P___ -1 -13.3250 152.387 7 3 232
1915071S13153 1915 12 SP EA NOT_NAMED 1915-03-12 11:00:00 NR -13.4000 152.300 main 358 358 __________O___ -1 -13.4000 152.300 7 3 227
1915071S13153 1915 12 SP EA NOT_NAMED 1915-03-12 12:00:00 NR -13.4394 152.260 main 358 358 __________P___ -1 -13.4394 152.260 7 3 224
1915071S13153 1915 12 SP EA NOT_NAMED 1915-03-12 15:00:00 NR -13.5637 152.140 main 368 364 __________P___ -1 -13.5637 152.140 7 4 226
1915071S13153 1915 12 SP EA NOT_NAMED 1915-03-12 18:00:00 NR -13.6924 151.994 main 374 370 __________P___ -1 -13.6924 151.994 7 4 233
1915071S13153 1915 12 SP EA NOT_NAMED 1915-03-12 21:00:00 NR -13.8193 151.788 main 377 374 __________P___ -1 -13.8193 151.788 7 5 242
1915071S13153 1915 12 SP EA NOT_NAMED 1915-03-12 23:00:00 NR -13.9000 151.600 main 381 377 __________O___ -1 -13.9000 151.600 7 6 249
1915071S13153 1915 12 SP EA NOT_NAMED 1915-03-13 00:00:00 NR -13.9356 151.482 main 377 374 __________P___ -1 -13.9356 151.482 7 8 255
1915071S13153 1915 12 SP EA NOT_NAMED 1915-03-13 03:00:00 NR -14.0362 151.061 main 377 375 __________P___ -1 -14.0362 151.061 7 9 257
1915071S13153 1915 12 SP EA NOT_NAMED 1915-03-13 06:00:00 NR -14.1324 150.571 main 381 380 __________P___ -1 -14.1324 150.571 7 10 259
1915071S13153 1915 12 SP EA NOT_NAMED 1915-03-13 09:00:00 NR -14.2304 150.048 main 392 392 __________P___ -1 -14.2304 150.048 7 10 259
1915071S13153 1915 12 SP EA NOT_NAMED 1915-03-13 11:00:00 NR -14.3000 149.700 main 406 406 __________O___ -1 -14.3000 149.700 7 10 258
1915071S13153 1915 12 SP EA NOT_NAMED 1915-03-13 12:00:00 NR -14.3384 149.522 main 410 397 __________P___ -1 -14.3384 149.522 7 11 257
1915071S13153 1915 12 SP EA NOT_NAMED 1915-03-13 15:00:00 NR -14.4593 148.980 main 397 342 __________P___ -1 -14.4593 148.980 7 11 256
1915071S13153 1915 12 SP EA NOT_NAMED 1915-03-13 18:00:00 NR -14.5857 148.465 main 342 287 __________P___ -1 -14.5857 148.465 7 10 255
1915071S13153 1915 12 SP EA NOT_NAMED 1915-03-13 21:00:00 NR -14.7144 148.025 main 287 263 __________P___ -1 -14.7144 148.025 7 8 252
1915071S13153 1915 12 SP EA NOT_NAMED 1915-03-13 23:00:00 NR -14.8000 147.800 main 263 253 __________O___ -1 -14.8000 147.800 7 7 247
1915071S13153 1915 12 SP EA NOT_NAMED 1915-03-14 00:00:00 NR -14.8414 147.714 main 253 227 __________P___ -1 -14.8414 147.714 7 5 237
1915071S13153 1915 12 SP EA NOT_NAMED 1915-03-14 03:00:00 NR -14.9660 147.541 main 227 226 __________P___ -1 -14.9660 147.541 7 3 223
1915071S13153 1915 12 SP EA NOT_NAMED 1915-03-14 06:00:00 NR -15.0910 147.471 main 226 225 __________P___ -1 -15.0910 147.471 7 3 195
1915071S13153 1915 12 SP EA NOT_NAMED 1915-03-14 09:00:00 NR -15.2164 147.474 main 225 225 __________P___ -1 -15.2164 147.474 7 3 176
1915071S13153 1915 12 SP EA NOT_NAMED 1915-03-14 11:00:00 NR -15.3000 147.500 main 225 225 __________O___ -1 -15.3000 147.500 7 3 0
1915071S13153 1915 12 SP EA NOT_NAMED 1915-03-14 12:00:00 NR -15.3416 147.499 main 225 224 __________P___ -1 -15.3416 147.499 7 3 173
1915071S13153 1915 12 SP EA NOT_NAMED 1915-03-14 15:00:00 NR -15.4666 147.525 main 224 224 __________P___ -1 -15.4666 147.525 7 3 159
1915071S13153 1915 12 SP EA NOT_NAMED 1915-03-14 18:00:00 NR -15.5916 147.596 main 231 229 __________P___ -1 -15.5916 147.596 7 3 145
1915071S13153 1915 12 SP EA NOT_NAMED 1915-03-14 21:00:00 NR -15.7166 147.706 main 239 234 __________P___ -1 -15.7166 147.706 7 3 136
1915071S13153 1915 12 SP EA NOT_NAMED 1915-03-14 23:00:00 NR -15.8000 147.800 main 243 243 __________O___ -1 -15.8000 147.800 7 4 133
1915071S13153 1915 12 SP EA NOT_NAMED 1915-03-15 00:00:00 NR -15.8429 147.850 main 243 243 __________P___ -1 -15.8429 147.850 7 4 128
1915071S13153 1915 12 SP EA NOT_NAMED 1915-03-15 03:00:00 NR -15.9722 148.027 main 250 250 __________P___ -1 -15.9722 148.027 7 5 125
1915071S13153 1915 12 SP EA NOT_NAMED 1915-03-15 06:00:00 NR -16.0997 148.234 main 265 265 __________P___ -1 -16.0997 148.234 7 5 121
1915071S13153 1915 12 SP EA NOT_NAMED 1915-03-15 09:00:00 NR -16.2224 148.454 main 288 283 __________P___ -1 -16.2224 148.454 7 5 120
1915071S13153 1915 12 SP EA NOT_NAMED 1915-03-15 11:00:00 NR -16.3000 148.600 main 293 293 __________O___ -1 -16.3000 148.600 7 5 119
1915071S13153 1915 12 SP EA NOT_NAMED 1915-03-15 12:00:00 NR -16.3391 148.669 main 302 298 __________P___ -1 -16.3391 148.669 7 5 120
1915071S13153 1915 12 SP EA NOT_NAMED 1915-03-15 15:00:00 NR -16.4521 148.878 main 314 314 __________P___ -1 -16.4521 148.878 7 5 119
1915071S13153 1915 12 SP EA NOT_NAMED 1915-03-15 18:00:00 NR -16.5559 149.083 main 331 331 __________P___ -1 -16.5559 149.083 7 4 117
1915071S13153 1915 12 SP EA NOT_NAMED 1915-03-15 21:00:00 NR -16.6474 149.278 main 351 349 __________P___ -1 -16.6474 149.278 7 4 115
1915071S13153 1915 12 SP EA NOT_NAMED 1915-03-15 23:00:00 NR -16.7000 149.400 main 359 359 __________O___ -1 -16.7000 149.400 7 4 114
1915071S13153 1915 12 SP EA NOT_NAMED 1915-03-16 00:00:00 NR -16.7233 149.458 main 369 365 __________P___ -1 -16.7233 149.458 7 3 111
1915071S13153 1915 12 SP EA NOT_NAMED 1915-03-16 03:00:00 NR -16.7824 149.621 main 372 372 __________P___ -1 -16.7824 149.621 7 3 110
1915071S13153 1915 12 SP EA NOT_NAMED 1915-03-16 06:00:00 NR -16.8298 149.771 main 385 377 __________P___ -1 -16.8298 149.771 7 3 108
1915071S13153 1915 12 SP EA NOT_NAMED 1915-03-16 09:00:00 NR -16.8719 149.911 main 384 384 __________P___ -1 -16.8719 149.911 7 3 108
1915071S13153 1915 12 SP EA NOT_NAMED 1915-03-16 11:00:00 NR -16.9000 150.000 main 390 390 __________O___ -1 -16.9000 150.000 7 3 110
1915071S13153 1915 12 SP EA NOT_NAMED 1915-03-16 12:00:00 NR -16.9166 150.041 main 390 385 __________P___ -1 -16.9166 150.041 7 2 113
1915071S13153 1915 12 SP EA NOT_NAMED 1915-03-16 15:00:00 NR -16.9665 150.158 main 390 390 __________P___ -1 -16.9665 150.158 7 2 114
1915071S13153 1915 12 SP EA NOT_NAMED 1915-03-16 18:00:00 NR -17.0165 150.274 main 396 392 __________P___ -1 -17.0165 150.274 7 3 113
1915071S13153 1915 12 SP EA NOT_NAMED 1915-03-16 21:00:00 NR -17.0666 150.402 main 392 392 __________P___ -1 -17.0666 150.402 7 3 111
1915071S13153 1915 12 SP EA NOT_NAMED 1915-03-16 23:00:00 NR -17.1000 150.500 main 398 398 __________O___ -1 -17.1000 150.500 7 3 108
1915071S13153 1915 12 SP EA NOT_NAMED 1915-03-17 00:00:00 NR -17.1155 150.559 main 405 400 __________P___ -1 -17.1155 150.559 7 4 104
1915071S13153 1915 12 SP EA NOT_NAMED 1915-03-17 03:00:00 NR -17.1613 150.754 main 405 405 __________P___ -1 -17.1613 150.754 7 4 104
1915071S13153 1915 12 SP EA NOT_NAMED 1915-03-17 06:00:00 NR -17.2088 150.963 main 417 413 __________P___ -1 -17.2088 150.963 7 4 104
1915071S13153 1915 12 SP EA NOT_NAMED 1915-03-17 09:00:00 NR -17.2610 151.170 main 420 420 __________P___ -1 -17.2610 151.170 7 4 106
1915071S13153 1915 12 SP EA NOT_NAMED 1915-03-17 11:00:00 NR -17.3000 151.300 main 426 426 __________O___ -1 -17.3000 151.300 7 4 110
1915071S13153 1915 12 SP EA NOT_NAMED 1915-03-17 12:00:00 NR -17.3228 151.353 main 433 424 __________P___ -1 -17.3228 151.353 7 3 117
1915071S13153 1915 12 SP EA NOT_NAMED 1915-03-17 15:00:00 NR -17.3973 151.500 main 431 429 __________P___ -1 -17.3973 151.500 7 3 119
1915071S13153 1915 12 SP EA NOT_NAMED 1915-03-17 18:00:00 NR -17.4761 151.639 main 429 429 __________P___ -1 -17.4761 151.639 7 3 120
1915071S13153 1915 12 SP EA NOT_NAMED 1915-03-17 21:00:00 NR -17.5530 151.788 main 436 436 __________P___ -1 -17.5530 151.788 7 3 117
1915071S13153 1915 12 SP EA NOT_NAMED 1915-03-17 23:00:00 NR -17.6000 151.900 main 444 444 __________O___ -1 -17.6000 151.900 7 4 112
1915071S13153 1915 12 SP EA NOT_NAMED 1915-03-18 00:00:00 NR -17.6213 151.965 main 452 452 __________P___ -1 -17.6213 151.965 7 4 107
1915071S13153 1915 12 SP EA NOT_NAMED 1915-03-18 03:00:00 NR -17.6800 152.176 main 460 460 __________P___ -1 -17.6800 152.176 7 4 105
1915071S13153 1915 12 SP EA NOT_NAMED 1915-03-18 06:00:00 NR -17.7313 152.405 main 477 477 __________P___ -1 -17.7313 152.405 7 5 102
1915071S13153 1915 12 SP EA NOT_NAMED 1915-03-18 09:00:00 NR -17.7750 152.642 main 487 487 __________P___ -1 -17.7750 152.642 7 5 100
1915071S13153 1915 12 SP EA NOT_NAMED 1915-03-18 11:00:00 NR -17.8000 152.800 main 504 504 __________O___ -1 -17.8000 152.800 7 4 100
1915071S13153 1915 12 SP EA NOT_NAMED 1915-03-18 12:00:00 NR -17.8128 152.871 main 513 513 __________P___ -1 -17.8128 152.871 7 4 100
1915071S13153 1915 12 SP EA NOT_NAMED 1915-03-18 15:00:00 NR -17.8464 153.084 main 531 525 __________P___ -1 -17.8464 153.084 7 4 98
1915071S13153 1915 12 SP EA NOT_NAMED 1915-03-18 18:00:00 NR -17.8726 153.301 main 543 543 __________P___ -1 -17.8726 153.301 7 4 96
1915071S13153 1915 12 SP EA NOT_NAMED 1915-03-18 21:00:00 NR -17.8915 153.533 main 562 562 __________P___ -1 -17.8915 153.533 7 5 94
1915071S13153 1915 12 SP EA NOT_NAMED 1915-03-18 23:00:00 NR -17.9000 153.700 main 580 580 __________O___ -1 -17.9000 153.700 7 5 93
1915071S13153 1915 12 SP EA NOT_NAMED 1915-03-19 00:00:00 NR -17.9058 153.792 main 589 589 __________P___ -1 -17.9058 153.792 7 6 93
1915071S13153 1915 12 SP EA NOT_NAMED 1915-03-19 03:00:00 NR -17.9189 154.087 main 615 615 __________P___ -1 -17.9189 154.087 7 6 92
1915071S13153 1915 12 SP EA NOT_NAMED 1915-03-19 06:00:00 NR -17.9227 154.396 main 634 634 __________P___ -1 -17.9227 154.396 7 6 90
1915071S13153 1915 12 SP EA NOT_NAMED 1915-03-19 09:00:00 NR -17.9141 154.704 main 653 653 __________P___ -1 -17.9141 154.704 7 6 87
1915071S13153 1915 12 SP EA NOT_NAMED 1915-03-19 11:00:00 NR -17.9000 154.900 main 667 667 __________O___ -1 -17.9000 154.900 7 5 86
1915071S13153 1915 12 SP EA NOT_NAMED 1915-03-19 12:00:00 NR -17.8936 154.989 main 674 674 __________P___ -1 -17.8936 154.989 7 5 84
1915071S13153 1915 12 SP EA NOT_NAMED 1915-03-19 15:00:00 NR -17.8652 155.244 main 688 688 __________P___ -1 -17.8652 155.244 7 5 81
1915071S13153 1915 12 SP EA NOT_NAMED 1915-03-19 18:00:00 NR -17.8202 155.488 main 718 718 __________P___ -1 -17.8202 155.488 7 5 77
1915071S13153 1915 12 SP EA NOT_NAMED 1915-03-19 21:00:00 NR -17.7556 155.733 main 732 732 __________P___ -1 -17.7556 155.733 7 5 73
1915071S13153 1915 12 SP EA NOT_NAMED 1915-03-19 23:00:00 NR -17.7000 155.900 main 755 755 __________O___ -1 -17.7000 155.900 7 5 71
1915071S13153 1915 12 SP EA NOT_NAMED 1915-03-20 00:00:00 NR -17.6672 155.995 main 763 763 __________P___ -1 -17.6672 155.995 7 6 68
1915071S13153 1915 12 SP EA NOT_NAMED 1915-03-20 03:00:00 NR -17.5517 156.286 main 793 793 __________P___ -1 -17.5517 156.286 7 6 66
1915071S13153 1915 12 SP EA NOT_NAMED 1915-03-20 06:00:00 NR -17.4204 156.575 main 832 828 __________P___ -1 -17.4204 156.575 7 6 63
1915071S13153 1915 12 SP EA NOT_NAMED 1915-03-20 09:00:00 NR -17.2856 156.843 main 828 814 __________P___ -1 -17.2856 156.843 7 6 61
1915071S13153 1915 12 SP EA NOT_NAMED 1915-03-20 11:00:00 NR -17.2000 157.000 main 814 804 __________O___ -1 -17.2000 157.000 7 5 61
1915071S13153 1915 12 SP EA NOT_NAMED 1915-03-20 12:00:00 NR -17.1620 157.072 main 804 791 __________P___ -1 -17.1620 157.072 7 4 60
1915071S13153 1915 12 SP EA NOT_NAMED 1915-03-20 15:00:00 NR -17.0532 157.261 main 791 787 __________P___ -1 -17.0532 157.261 7 4 57
1915071S13153 1915 12 SP EA NOT_NAMED 1915-03-20 18:00:00 NR -16.9519 157.415 main 787 783 __________P___ -1 -16.9519 157.415 7 3 53
1915071S13153 1915 12 SP EA NOT_NAMED 1915-03-20 21:00:00 NR -16.8583 157.536 main 783 779 __________P___ -1 -16.8583 157.536 7 3 50
1915071S13153 1915 12 SP EA NOT_NAMED 1915-03-20 23:00:00 NR -16.8000 157.600 main 779 779 __________O___ -1 -16.8000 157.600 7 3 49
1915071S13153 1915 12 SP EA NOT_NAMED 1915-03-21 00:00:00 NR -16.7716 157.634 main 779 770 __________P___ -1 -16.7716 157.634 7 2 45
1915071S13153 1915 12 SP EA NOT_NAMED 1915-03-21 03:00:00 NR -16.6920 157.715 main 776 773 __________P___ -1 -16.6920 157.715 7 2 39
1915071S13153 1915 12 SP EA NOT_NAMED 1915-03-21 06:00:00 NR -16.6183 157.767 main 773 773 __________P___ -1 -16.6183 157.767 7 2 28
1915071S13153 1915 12 SP EA NOT_NAMED 1915-03-21 09:00:00 NR -16.5473 157.794 main 770 770 __________P___ -1 -16.5473 157.794 7 1 19
1915071S13153 1915 12 SP EA NOT_NAMED 1915-03-21 11:00:00 NR -16.5000 157.800 main 770 770 __________O___ -1 -16.5000 157.800 7 1 0
1915071S13153 1915 12 SP EA NOT_NAMED 1915-03-21 12:00:00 NR -16.4750 157.805 main 770 761 __________P___ -1 -16.4750 157.805 7 2 0
1915071S13153 1915 12 SP EA NOT_NAMED 1915-03-21 15:00:00 NR -16.4000 157.807 main 761 752 __________P___ -1 -16.4000 157.807 7 2 0
1915071S13153 1915 12 SP EA NOT_NAMED 1915-03-21 18:00:00 NR -16.3250 157.785 main 752 752 __________P___ -1 -16.3250 157.785 7 2 341
1915071S13153 1915 12 SP EA NOT_NAMED 1915-03-21 21:00:00 NR -16.2500 157.742 main 749 749 __________P___ -1 -16.2500 157.742 7 2 328
1915071S13153 1915 12 SP EA NOT_NAMED 1915-03-21 23:00:00 NR -16.2000 157.700 main 749 749 __________O___ -1 -16.2000 157.700 7 2 323
1915071S13153 1915 12 SP EA NOT_NAMED 1915-03-22 00:00:00 NR -16.1725 157.677 main 749 740 __________P___ -1 -16.1725 157.677 7 2 316
1915071S13153 1915 12 SP EA NOT_NAMED 1915-03-22 03:00:00 NR -16.0892 157.590 main 744 737 __________P___ -1 -16.0892 157.590 7 2 312
1915071S13153 1915 12 SP EA NOT_NAMED 1915-03-22 06:00:00 NR -16.0091 157.486 main 737 730 __________P___ -1 -16.0091 157.486 7 3 306
1915071S13153 1915 12 SP EA NOT_NAMED 1915-03-22 09:00:00 NR -15.9386 157.375 main 730 730 __________P___ -1 -15.9386 157.375 7 3 301
1915071S13153 1915 12 SP EA NOT_NAMED 1915-03-22 11:00:00 NR -15.9000 157.300 main 734 734 __________O___ -1 -15.9000 157.300 7 2 298
1915071S13153 1915 12 SP EA NOT_NAMED 1915-03-22 12:00:00 NR -15.8837 157.268 main 734 728 __________P___ -1 -15.8837 157.268 7 2 293
1915071S13153 1915 12 SP EA NOT_NAMED 1915-03-22 15:00:00 NR -15.8454 157.172 main 728 728 __________P___ -1 -15.8454 157.172 7 2 289
1915071S13153 1915 12 SP EA NOT_NAMED 1915-03-22 18:00:00 NR -15.8204 157.075 main 732 732 __________P___ -1 -15.8204 157.075 7 2 282
1915071S13153 1915 12 SP EA NOT_NAMED 1915-03-22 21:00:00 NR -15.8057 156.972 main 737 737 __________P___ -1 -15.8057 156.972 7 2 277
1915071S13153 1915 12 SP EA NOT_NAMED 1915-03-22 23:00:00 NR -15.8000 156.900 main 741 741 __________O___ -1 -15.8000 156.900 7 2 276
1915071S13153 1915 12 SP EA NOT_NAMED 1915-03-23 00:00:00 NR -15.7954 156.863 main 741 741 __________P___ -1 -15.7954 156.863 7 2 275
1915071S13153 1915 12 SP EA NOT_NAMED 1915-03-23 03:00:00 NR -15.7866 156.747 main 751 751 __________P___ -1 -15.7866 156.747 7 2 272
1915071S13153 1915 12 SP EA NOT_NAMED 1915-03-23 06:00:00 NR -15.7854 156.623 main 756 756 __________P___ -1 -15.7854 156.623 7 2 269
1915071S13153 1915 12 SP EA NOT_NAMED 1915-03-23 09:00:00 NR -15.7916 156.492 main 761 761 __________P___ -1 -15.7916 156.492 7 3 266
1915071S13153 1915 12 SP EA NOT_NAMED 1915-03-23 11:00:00 NR -15.8000 156.400 main 766 766 __________O___ -1 -15.8000 156.400 7 3 264
1915071S13153 1915 12 SP EA NOT_NAMED 1915-03-23 12:00:00 NR -15.8062 156.351 main 766 766 __________P___ -1 -15.8062 156.351 7 3 261
1915071S13153 1915 12 SP EA NOT_NAMED 1915-03-23 15:00:00 NR -15.8309 156.197 main 777 777 __________P___ -1 -15.8309 156.197 7 3 260
1915071S13153 1915 12 SP EA NOT_NAMED 1915-03-23 18:00:00 NR -15.8597 156.041 main 797 797 __________P___ -1 -15.8597 156.041 7 3 259
1915071S13153 1915 12 SP EA NOT_NAMED 1915-03-23 21:00:00 NR -15.8864 155.891 main 803 803 __________P___ -1 -15.8864 155.891 7 3 260
1915071S13153 1915 12 SP EA NOT_NAMED 1915-03-23 23:00:00 NR -15.9000 155.800 main 809 809 __________O___ -1 -15.9000 155.800 7 3 262
1915071S13153 1915 12 SP EA NOT_NAMED 1915-03-24 00:00:00 NR -15.9046 155.759 main 809 803 __________P___ -1 -15.9046 155.759 7 2 265
1915071S13153 1915 12 SP EA NOT_NAMED 1915-03-24 03:00:00 NR -15.9133 155.645 main 795 795 __________P___ -1 -15.9133 155.645 7 2 267
1915071S13153 1915 12 SP EA NOT_NAMED 1915-03-24 06:00:00 NR -15.9145 155.545 main 788 788 __________P___ -1 -15.9145 155.545 7 2 272
1915071S13153 1915 12 SP EA NOT_NAMED 1915-03-24 09:00:00 NR -15.9083 155.456 main 788 781 __________P___ -1 -15.9083 155.456 7 2 276
1915071S13153 1915 12 SP EA NOT_NAMED 1915-03-24 11:00:00 NR -15.9000 155.400 main 781 781 __________O___ -1 -15.9000 155.400 7 2 280
1915071S13153 1915 12 SP EA NOT_NAMED 1915-03-24 12:00:00 NR -15.8950 155.374 main 781 774 __________P___ -1 -15.8950 155.374 7 1 285
1915071S13153 1915 12 SP EA NOT_NAMED 1915-03-24 15:00:00 NR -15.8745 155.303 main 774 759 __________P___ -1 -15.8745 155.303 7 1 289
1915071S13153 1915 12 SP EA NOT_NAMED 1915-03-24 18:00:00 NR -15.8482 155.234 main 759 759 __________P___ -1 -15.8482 155.234 7 1 292
1915071S13153 1915 12 SP EA NOT_NAMED 1915-03-24 21:00:00 NR -15.8193 155.159 main 759 752 __________P___ -1 -15.8193 155.159 7 2 291
1915071S13153 1915 12 SP EA NOT_NAMED 1915-03-24 23:00:00 NR -15.8000 155.100 main 752 752 __________O___ -1 -15.8000 155.100 7 2 286
1915071S13153 1915 12 SP EA NOT_NAMED 1915-03-25 00:00:00 NR -15.7941 155.064 main 752 745 __________P___ -1 -15.7941 155.064 7 2 279
1915071S13153 1915 12 SP EA NOT_NAMED 1915-03-25 03:00:00 NR -15.7776 154.944 main 738 732 __________P___ -1 -15.7776 154.944 7 2 279
1915071S13153 1915 12 SP EA NOT_NAMED 1915-03-25 06:00:00 NR -15.7576 154.814 main 732 716 __________P___ -1 -15.7576 154.814 7 3 281
1915071S13153 1915 12 SP EA NOT_NAMED 1915-03-25 09:00:00 NR -15.7281 154.683 main 716 710 __________P___ -1 -15.7281 154.683 7 3 286
1915071S13153 1915 12 SP EA NOT_NAMED 1915-03-25 11:00:00 NR -15.7000 154.600 main 710 710 __________O___ -1 -15.7000 154.600 7 2 291
1915071S13153 1915 12 SP EA NOT_NAMED 1915-03-25 12:00:00 NR -15.6842 154.562 main 710 694 __________P___ -1 -15.6842 154.562 7 2 298
1915071S13153 1915 12 SP EA NOT_NAMED 1915-03-25 15:00:00 NR -15.6266 154.453 main 694 688 __________P___ -1 -15.6266 154.453 7 2 303
1915071S13153 1915 12 SP EA NOT_NAMED 1915-03-25 18:00:00 NR -15.5541 154.352 main 688 673 __________P___ -1 -15.5541 154.352 7 2 310
1915071S13153 1915 12 SP EA NOT_NAMED 1915-03-25 21:00:00 NR -15.4667 154.258 main 673 657 __________P___ -1 -15.4667 154.258 7 3 316
1915071S13153 1915 12 SP EA NOT_NAMED 1915-03-25 23:00:00 NR -15.4000 154.200 main 657 657 __________O___ -1 -15.4000 154.200 7 3 319
1915071S13153 1915 12 SP EA NOT_NAMED 1915-03-26 00:00:00 NR -15.3675 154.169 main 657 642 __________P___ -1 -15.3675 154.169 7 3 321
1915071S13153 1915 12 SP EA NOT_NAMED 1915-03-26 03:00:00 NR -15.2600 154.081 main 642 618 __________P___ -1 -15.2600 154.081 7 3 324
1915071S13153 1915 12 SP EA NOT_NAMED 1915-03-26 06:00:00 NR -15.1375 154.002 main 618 602 __________P___ -1 -15.1375 154.002 7 3 331
1915071S13153 1915 12 SP EA NOT_NAMED 1915-03-26 09:00:00 NR -15.0000 153.936 main 602 593 __________P___ -1 -15.0000 153.936 7 3 338
1915071S13153 1915 12 SP EA NOT_NAMED 1915-03-26 11:00:00 NR -14.9000 153.900 main 593 593 __________O___ -1 -14.9000 153.900 7 3 341
1915071S13153 1915 12 SP EA NOT_NAMED 1915-03-26 12:00:00 NR -14.8459 153.883 main 584 569 __________P___ -1 -14.8459 153.883 7 4 347
1915071S13153 1915 12 SP EA NOT_NAMED 1915-03-26 15:00:00 NR -14.6716 153.840 main 569 551 __________P___ -1 -14.6716 153.840 7 4 350
1915071S13153 1915 12 SP EA NOT_NAMED 1915-03-26 18:00:00 NR -14.4890 153.812 main 551 533 __________P___ -1 -14.4890 153.812 7 4 355
1915071S13153 1915 12 SP EA NOT_NAMED 1915-03-26 21:00:00 NR -14.3105 153.800 main 533 525 __________P___ -1 -14.3105 153.800 7 3 0
1915071S13153 1915 12 SP EA NOT_NAMED 1915-03-26 23:00:00 NR -14.2000 153.800 main 525 525 __________O___ -1 -14.2000 153.800 7 3 5
1915071S13153 1915 12 SP EA NOT_NAMED 1915-03-27 00:00:00 NR -14.1529 153.802 main 525 508 __________P___ -1 -14.1529 153.802 7 3 0
1915071S13153 1915 12 SP EA NOT_NAMED 1915-03-27 03:00:00 NR -14.0230 153.818 main 508 500 __________P___ -1 -14.0230 153.818 7 3 10
1915071S13153 1915 12 SP EA NOT_NAMED 1915-03-27 06:00:00 NR -13.9031 153.845 main 500 499 __________P___ -1 -13.9031 153.845 7 2 15
1915071S13153 1915 12 SP EA NOT_NAMED 1915-03-27 09:00:00 NR -13.7838 153.878 main 499 491 __________P___ -1 -13.7838 153.878 7 3 14
1915071S13153 1915 12 SP EA NOT_NAMED 1915-03-27 11:00:00 NR -13.7000 153.900 main 491 491 __________O___ -1 -13.7000 153.900 7 3 13
1915071S13153 1915 12 SP EA NOT_NAMED 1915-03-27 12:00:00 NR -13.6559 153.910 main 491 476 __________P___ -1 -13.6559 153.910 7 3 13
1915071S13153 1915 12 SP EA NOT_NAMED 1915-03-27 15:00:00 NR -13.5148 153.938 main 476 468 __________P___ -1 -13.5148 153.938 7 3 9
1915071S13153 1915 12 SP EA NOT_NAMED 1915-03-27 18:00:00 NR -13.3638 153.963 main 476 462 __________P___ -1 -13.3638 153.963 7 3 8
1915071S13153 1915 12 SP EA NOT_NAMED 1915-03-27 21:00:00 NR -13.2065 153.986 main 462 455 __________P___ -1 -13.2065 153.986 7 3 6
1915071S13153 1915 12 SP EA NOT_NAMED 1915-03-27 23:00:00 NR -13.1000 154.000 main 455 __________O___ -1 -13.1000 154.000 7 3 0

デジタル台風データ・検索

IBTrACS Databaseについて

本データベースは、米国NOAAが公開する1842年以降の世界の熱帯低気圧のベストトラックデータアーカイブInternational Best Track Archive for Climate Stewardship (IBTrACS)を、ウェブで閲覧しやすい形式に変換したものです。

最終更新日:2021-10-08